createdAt,value
2023-01-26T00:01:17.666Z,98952.16
2023-01-26T00:03:45.088Z,98961.41
2023-01-26T00:06:14.171Z,98987.13
2023-01-26T00:08:42.821Z,98958.84
2023-01-26T00:11:11.508Z,98985.41
2023-01-26T00:13:39.053Z,98980.13
2023-01-26T00:16:10.016Z,98955.97
2023-01-26T00:18:38.199Z,98976.75
2023-01-26T00:21:05.870Z,98936.97
2023-01-26T00:23:34.354Z,98957.94
2023-01-26T00:26:01.291Z,98963.09
2023-01-26T00:28:28.945Z,98935.31
2023-01-26T00:31:07.186Z,98940.38
2023-01-26T00:33:34.198Z,98926.72
2023-01-26T00:36:00.808Z,98898.75
2023-01-26T00:38:27.771Z,98962.78
2023-01-26T00:40:54.562Z,98949.09
2023-01-26T00:43:21.436Z,98956.81
2023-01-26T00:45:48.043Z,98898.66
2023-01-26T00:48:14.981Z,98877.59
2023-01-26T00:50:41.626Z,98864.59
2023-01-26T00:53:09.657Z,98893.59
2023-01-26T00:55:36.331Z,98959.13
2023-01-26T00:58:07.681Z,98902.06
2023-01-26T01:00:37.061Z,98875.44
2023-01-26T01:03:05.291Z,98951.25
2023-01-26T01:05:32.401Z,98916.72
2023-01-26T01:07:59.496Z,98886.34
2023-01-26T01:10:29.276Z,98956.00
2023-01-26T01:12:56.719Z,98955.69
2023-01-26T01:15:23.991Z,98955.94
2023-01-26T01:17:50.765Z,98942.75
2023-01-26T01:20:17.635Z,98958.16
2023-01-26T01:22:45.378Z,98931.13
2023-01-26T01:25:12.343Z,98931.84
2023-01-26T01:27:39.041Z,98878.63
2023-01-26T01:30:08.133Z,98953.78
2023-01-26T01:32:40.026Z,98919.19
2023-01-26T01:35:07.662Z,98943.69
2023-01-26T01:37:34.545Z,98941.72
2023-01-26T01:40:01.132Z,98939.84
2023-01-26T01:42:28.051Z,98937.25
2023-01-26T01:45:25.589Z,98935.97
2023-01-26T01:48:04.744Z,98927.56
2023-01-26T01:50:37.135Z,98916.06
2023-01-26T01:53:04.340Z,98902.03
2023-01-26T01:55:31.931Z,98882.19
2023-01-26T01:58:02.968Z,98922.22
2023-01-26T02:00:30.052Z,98901.47
2023-01-26T02:03:14.638Z,98919.38
2023-01-26T02:05:53.567Z,98924.19
2023-01-26T02:08:24.173Z,98926.72
2023-01-26T02:10:54.675Z,98916.97
2023-01-26T02:13:23.051Z,98918.19
2023-01-26T02:15:51.142Z,98863.84
2023-01-26T02:18:17.795Z,98900.84
2023-01-26T02:20:55.253Z,98904.31
2023-01-26T02:23:37.156Z,98895.69
2023-01-26T02:26:15.350Z,98902.91
2023-01-26T02:28:43.972Z,98882.59
2023-01-26T02:31:11.718Z,98844.41
2023-01-26T02:33:39.192Z,98879.97
2023-01-26T02:36:07.524Z,98875.28
2023-01-26T02:38:43.539Z,98850.91
2023-01-26T02:41:34.624Z,98799.88
2023-01-26T02:44:04.135Z,98859.44
2023-01-26T02:46:30.792Z,98863.16
2023-01-26T02:49:16.142Z,98834.69
2023-01-26T02:51:42.777Z,98851.88
2023-01-26T02:54:09.634Z,98854.53
2023-01-26T02:56:42.305Z,98824.84
2023-01-26T02:59:08.854Z,98844.91
2023-01-26T03:01:35.561Z,98843.00
2023-01-26T03:04:02.220Z,98836.38
2023-01-26T03:06:28.869Z,98832.69
2023-01-26T03:08:56.956Z,98830.88
2023-01-26T03:11:23.507Z,98818.75
2023-01-26T03:13:50.098Z,98822.59
2023-01-26T03:16:18.473Z,98773.84
2023-01-26T03:19:03.409Z,98813.22
2023-01-26T03:21:49.482Z,98782.72
2023-01-26T03:24:35.949Z,98803.84
2023-01-26T03:27:25.062Z,98713.84
2023-01-26T03:29:52.780Z,98816.78
2023-01-26T03:32:19.479Z,98814.00
2023-01-26T03:34:46.825Z,98801.16
2023-01-26T03:37:13.446Z,98790.56
2023-01-26T03:40:04.226Z,98777.72
2023-01-26T03:42:49.526Z,98799.41
2023-01-26T03:45:35.213Z,98798.16
2023-01-26T03:48:25.517Z,98803.81
2023-01-26T03:51:11.079Z,98802.97
2023-01-26T03:53:56.246Z,98805.34
2023-01-26T03:56:24.472Z,98794.66
2023-01-26T03:58:56.873Z,98765.50
2023-01-26T04:01:27.996Z,98770.03
2023-01-26T04:04:17.620Z,98773.66
2023-01-26T04:07:06.899Z,98783.63
2023-01-26T04:09:36.701Z,98791.25
2023-01-26T04:12:04.474Z,98785.72
2023-01-26T04:14:55.670Z,98768.78
2023-01-26T04:17:43.354Z,98786.88
2023-01-26T04:20:29.087Z,98787.13
2023-01-26T04:22:56.020Z,98782.94
2023-01-26T04:25:23.231Z,98756.19
2023-01-26T04:27:50.323Z,98723.50
2023-01-26T04:30:18.310Z,98771.09
2023-01-26T04:32:46.301Z,98777.97
2023-01-26T04:35:13.879Z,98713.69
2023-01-26T04:37:42.654Z,98749.47
2023-01-26T04:40:10.504Z,98776.19
2023-01-26T04:42:37.995Z,98761.59
2023-01-26T04:45:06.100Z,98724.78
2023-01-26T04:47:32.841Z,98764.81
2023-01-26T04:49:59.582Z,98767.56
2023-01-26T04:52:26.631Z,98761.19
2023-01-26T04:54:53.606Z,98765.50
2023-01-26T04:57:21.185Z,98759.19
2023-01-26T04:59:50.422Z,98761.00
2023-01-26T05:02:19.008Z,98758.34
2023-01-26T05:04:45.563Z,98756.34
2023-01-26T05:07:13.743Z,98758.25
2023-01-26T05:09:40.506Z,98707.63
2023-01-26T05:12:35.503Z,98754.78
2023-01-26T05:15:21.453Z,98738.69
2023-01-26T05:18:00.009Z,98742.34
2023-01-26T05:20:47.931Z,98759.19
2023-01-26T05:23:16.944Z,98735.22
2023-01-26T05:26:02.594Z,98744.00
2023-01-26T05:28:31.646Z,98730.91
2023-01-26T05:30:58.433Z,98764.34
2023-01-26T05:33:25.126Z,98744.78
2023-01-26T05:35:53.574Z,98736.19
2023-01-26T05:38:20.968Z,98763.03
2023-01-26T05:40:48.151Z,98717.94
2023-01-26T05:43:15.941Z,98749.63
2023-01-26T05:46:01.876Z,98766.44
2023-01-26T05:48:28.622Z,98759.19
2023-01-26T05:50:58.602Z,98761.75
2023-01-26T05:53:25.800Z,98754.03
2023-01-26T05:55:52.473Z,98695.53
2023-01-26T05:58:22.157Z,98742.00
2023-01-26T06:00:48.971Z,98759.28
2023-01-26T06:03:22.671Z,98753.47
2023-01-26T06:05:54.858Z,98731.41
2023-01-26T06:08:30.900Z,98748.88
2023-01-26T06:11:20.343Z,98746.50
2023-01-26T06:14:02.161Z,98766.66
2023-01-26T06:16:29.853Z,98762.91
2023-01-26T06:18:56.511Z,98724.03
2023-01-26T06:21:23.185Z,98746.47
2023-01-26T06:23:49.848Z,98756.78
2023-01-26T06:26:16.495Z,98754.13
2023-01-26T06:28:43.659Z,98753.81
2023-01-26T06:31:10.912Z,98743.16
2023-01-26T06:33:38.840Z,98756.34
2023-01-26T06:36:10.851Z,98724.31
2023-01-26T06:38:38.831Z,98729.47
2023-01-26T06:41:07.528Z,98742.06
2023-01-26T06:43:35.771Z,98711.00
2023-01-26T06:46:05.155Z,98747.91
2023-01-26T06:48:35.031Z,98680.78
2023-01-26T06:51:38.064Z,98740.47
2023-01-26T06:54:04.927Z,98713.72
2023-01-26T06:56:50.154Z,98736.72
2023-01-26T06:59:25.772Z,98744.78
2023-01-26T07:02:17.746Z,98745.00
2023-01-26T07:04:44.822Z,98745.44
2023-01-26T07:07:11.414Z,98700.00
2023-01-26T07:09:38.026Z,98746.75
2023-01-26T07:12:04.866Z,98720.47
2023-01-26T07:14:35.000Z,98740.88
2023-01-26T07:17:02.203Z,98730.16
2023-01-26T07:19:31.316Z,98710.47
2023-01-26T07:21:58.132Z,98739.38
2023-01-26T07:24:25.179Z,98728.09
2023-01-26T07:26:51.971Z,98663.63
2023-01-26T07:29:18.655Z,98737.31
2023-01-26T07:31:45.306Z,98714.78
2023-01-26T07:34:12.185Z,98732.41
2023-01-26T07:36:38.886Z,98742.34
2023-01-26T07:39:08.431Z,98729.25
2023-01-26T07:41:35.937Z,98727.75
2023-01-26T07:44:12.893Z,98728.72
2023-01-26T07:46:40.105Z,98734.75
2023-01-26T07:49:07.090Z,98736.41
2023-01-26T07:51:33.987Z,98720.91
2023-01-26T07:54:00.538Z,98689.09
2023-01-26T07:56:27.137Z,98724.50
2023-01-26T07:58:54.688Z,98692.25
2023-01-26T08:01:21.900Z,98701.53
2023-01-26T08:03:51.161Z,98734.09
2023-01-26T08:06:18.595Z,98718.34
2023-01-26T08:08:50.947Z,98668.09
2023-01-26T08:11:23.476Z,98730.56
2023-01-26T08:13:50.118Z,98724.88
2023-01-26T08:16:16.739Z,98722.22
2023-01-26T08:18:45.330Z,98732.72
2023-01-26T08:21:13.893Z,98707.56
2023-01-26T08:23:40.921Z,98715.28
2023-01-26T08:26:11.206Z,98719.91
2023-01-26T08:28:37.884Z,98722.44
2023-01-26T08:31:13.091Z,98739.66
2023-01-26T08:33:41.761Z,98745.50
2023-01-26T08:36:12.306Z,98691.34
2023-01-26T08:38:39.301Z,98721.09
2023-01-26T08:41:06.694Z,98646.94
2023-01-26T08:43:34.096Z,98709.50
2023-01-26T08:46:01.038Z,98681.31
2023-01-26T08:48:28.449Z,98681.47
2023-01-26T08:50:56.629Z,98665.13
2023-01-26T08:53:24.040Z,98730.63
2023-01-26T08:55:51.247Z,98731.03
2023-01-26T08:58:18.531Z,98698.25
2023-01-26T09:00:45.187Z,98700.47
2023-01-26T09:03:12.215Z,98703.28
2023-01-26T09:05:40.078Z,98697.97
2023-01-26T09:08:08.498Z,98728.97
2023-01-26T09:10:37.305Z,98732.16
2023-01-26T09:13:03.804Z,98693.75
2023-01-26T09:15:30.374Z,98680.91
2023-01-26T09:17:58.611Z,98648.38
2023-01-26T09:20:27.181Z,98697.47
2023-01-26T09:22:54.625Z,98721.50
2023-01-26T09:25:21.254Z,98721.91
2023-01-26T09:27:47.822Z,98721.91
2023-01-26T09:30:14.762Z,98725.53
2023-01-26T09:32:41.349Z,98717.56
2023-01-26T09:35:14.226Z,98713.47
2023-01-26T09:37:43.027Z,98715.09
2023-01-26T09:40:18.316Z,98725.84
2023-01-26T09:43:05.348Z,98723.38
2023-01-26T09:45:59.720Z,98723.88
2023-01-26T09:48:54.059Z,98725.06
2023-01-26T09:51:23.392Z,98680.22
2023-01-26T09:53:55.622Z,98713.47
2023-01-26T09:56:28.167Z,98730.47
2023-01-26T09:59:32.118Z,98729.28
2023-01-26T10:02:17.360Z,98727.06
2023-01-26T10:04:51.179Z,98719.50
2023-01-26T10:07:18.035Z,98721.56
2023-01-26T10:09:52.642Z,98703.13
2023-01-26T10:12:23.051Z,98681.69
2023-01-26T10:15:18.655Z,98705.22
2023-01-26T10:17:47.418Z,98704.25
2023-01-26T10:20:36.253Z,98707.50
2023-01-26T10:23:16.103Z,98691.41
2023-01-26T10:25:46.216Z,98668.09
2023-01-26T10:28:22.025Z,98690.31
2023-01-26T10:30:51.215Z,98666.22
2023-01-26T10:33:37.772Z,98687.91
2023-01-26T10:36:08.119Z,98636.22
2023-01-26T10:38:37.840Z,98672.03
2023-01-26T10:41:28.871Z,98672.03
2023-01-26T10:43:58.563Z,98670.97
2023-01-26T10:46:38.119Z,98659.22
2023-01-26T10:49:16.960Z,98660.03
2023-01-26T10:51:46.106Z,98653.00
2023-01-26T10:54:23.874Z,98651.81
2023-01-26T10:57:07.251Z,98645.97
2023-01-26T10:59:43.736Z,98619.31
2023-01-26T11:02:16.832Z,98637.00
2023-01-26T11:05:01.508Z,98638.97
2023-01-26T11:07:32.716Z,98632.09
2023-01-26T11:10:20.770Z,98639.63
2023-01-26T11:12:48.297Z,98622.44
2023-01-26T11:15:27.233Z,98628.25
2023-01-26T11:18:12.384Z,98621.75
2023-01-26T11:21:03.367Z,98612.16
2023-01-26T11:23:52.557Z,98606.81
2023-01-26T11:26:48.747Z,98602.94
2023-01-26T11:29:39.372Z,98584.56
2023-01-26T11:32:50.883Z,98587.72
2023-01-26T11:35:35.850Z,98576.63
2023-01-26T11:38:20.727Z,98570.78
2023-01-26T11:40:54.139Z,98556.50
2023-01-26T11:43:38.910Z,98556.06
2023-01-26T11:46:21.122Z,98539.59
2023-01-26T11:49:16.940Z,98540.31
2023-01-26T11:51:46.163Z,98539.72
2023-01-26T11:54:12.698Z,98528.31
2023-01-26T11:56:46.057Z,98523.44
2023-01-26T11:59:18.248Z,98509.81
2023-01-26T12:02:13.128Z,98505.00
2023-01-26T12:04:45.373Z,98466.66
2023-01-26T12:07:19.169Z,98478.13
2023-01-26T12:09:52.425Z,98478.03
2023-01-26T12:12:43.177Z,98493.09
2023-01-26T12:15:19.311Z,98491.81
2023-01-26T12:17:55.103Z,98460.78
2023-01-26T12:20:42.033Z,98476.97
2023-01-26T12:23:08.565Z,98475.84
2023-01-26T12:25:49.224Z,98451.00
2023-01-26T12:28:18.727Z,98463.84
2023-01-26T12:31:11.823Z,98441.13
2023-01-26T12:33:39.182Z,98423.72
2023-01-26T12:36:25.463Z,98453.81
2023-01-26T12:39:22.777Z,98441.91
2023-01-26T12:42:11.050Z,98436.09
2023-01-26T12:44:45.852Z,98431.41
2023-01-26T12:47:32.672Z,98414.72
2023-01-26T12:50:08.811Z,98409.75
2023-01-26T12:52:42.879Z,98386.09
2023-01-26T12:55:19.919Z,98400.28
2023-01-26T12:57:53.664Z,98389.19
2023-01-26T13:00:29.993Z,98396.72
2023-01-26T13:03:05.608Z,98367.19
2023-01-26T13:05:34.384Z,98381.13
2023-01-26T13:08:33.244Z,98391.34
2023-01-26T13:11:02.067Z,98381.63
2023-01-26T13:13:31.612Z,98396.84
2023-01-26T13:16:16.514Z,98389.19
2023-01-26T13:18:55.208Z,98386.94
2023-01-26T13:21:34.008Z,98384.97
2023-01-26T13:24:00.634Z,98333.50
2023-01-26T13:26:33.057Z,98380.22
2023-01-26T13:29:32.784Z,98322.03
2023-01-26T13:32:00.889Z,98344.00
2023-01-26T13:34:36.715Z,98363.28
2023-01-26T13:37:15.101Z,98348.66
2023-01-26T13:39:46.300Z,98360.84
2023-01-26T13:42:27.580Z,98349.00
2023-01-26T13:45:04.173Z,98304.19
2023-01-26T13:47:45.877Z,98328.38
2023-01-26T13:50:42.565Z,98358.56
2023-01-26T13:53:30.627Z,98353.50
2023-01-26T13:55:59.821Z,98329.19
2023-01-26T13:58:27.548Z,98348.63
2023-01-26T14:01:04.862Z,98356.41
2023-01-26T14:03:31.986Z,98342.84
2023-01-26T14:06:04.463Z,98348.28
2023-01-26T14:08:33.241Z,98336.50
2023-01-26T14:11:02.605Z,98350.97
2023-01-26T14:13:36.406Z,98307.75
2023-01-26T14:16:08.146Z,98331.34
2023-01-26T14:18:34.742Z,98314.72
2023-01-26T14:21:06.184Z,98312.31
2023-01-26T14:23:36.951Z,98328.56
2023-01-26T14:26:06.703Z,98334.75
2023-01-26T14:28:41.487Z,98309.91
2023-01-26T14:31:19.830Z,98332.25
2023-01-26T14:33:48.928Z,98301.31
2023-01-26T14:36:18.378Z,98334.06
2023-01-26T14:38:53.912Z,98337.84
2023-01-26T14:41:24.855Z,98344.50
2023-01-26T14:44:00.149Z,98339.63
2023-01-26T14:47:02.554Z,98331.53
2023-01-26T14:49:43.262Z,98332.97
2023-01-26T14:52:34.743Z,98310.72
2023-01-26T14:55:07.590Z,98308.31
2023-01-26T14:57:34.597Z,98332.59
2023-01-26T15:00:02.462Z,98319.69
2023-01-26T15:02:38.412Z,98329.53
2023-01-26T15:05:30.895Z,98303.06
2023-01-26T15:08:04.162Z,98329.22
2023-01-26T15:10:33.704Z,98325.97
2023-01-26T15:13:15.590Z,98327.38
2023-01-26T15:15:48.904Z,98286.97
2023-01-26T15:18:22.025Z,98309.16
2023-01-26T15:20:48.692Z,98330.22
2023-01-26T15:23:30.880Z,98287.69
2023-01-26T15:26:09.445Z,98314.59
2023-01-26T15:28:37.475Z,98318.63
2023-01-26T15:31:04.762Z,98291.16
2023-01-26T15:33:44.565Z,98305.16
2023-01-26T15:36:24.349Z,98278.09
2023-01-26T15:39:01.626Z,98291.47
2023-01-26T15:41:29.251Z,98312.81
2023-01-26T15:43:57.271Z,98301.22
2023-01-26T15:46:24.406Z,98312.03
2023-01-26T15:48:50.954Z,98306.75
2023-01-26T15:51:17.645Z,98306.38
2023-01-26T15:53:44.309Z,98312.72
2023-01-26T15:56:16.452Z,98288.88
2023-01-26T15:58:43.310Z,98322.75
2023-01-26T16:01:15.855Z,98299.53
2023-01-26T16:03:44.970Z,98223.88
2023-01-26T16:06:25.920Z,98316.03
2023-01-26T16:08:54.123Z,98282.00
2023-01-26T16:11:22.802Z,98308.66
2023-01-26T16:14:02.400Z,98225.59
2023-01-26T16:16:29.872Z,98329.94
2023-01-26T16:18:56.798Z,98329.16
2023-01-26T16:21:26.348Z,98340.97
2023-01-26T16:23:52.978Z,98339.59
2023-01-26T16:26:19.965Z,98320.41
2023-01-26T16:28:47.230Z,98300.47
2023-01-26T16:31:22.683Z,98313.41
2023-01-26T16:33:50.537Z,98312.91
2023-01-26T16:36:19.387Z,98336.09
2023-01-26T16:38:46.612Z,98314.94
2023-01-26T16:41:24.493Z,98331.97
2023-01-26T16:43:54.551Z,98332.16
2023-01-26T16:46:21.417Z,98307.19
2023-01-26T16:48:47.932Z,98300.91
2023-01-26T16:51:19.173Z,98334.53
2023-01-26T16:53:46.927Z,98269.44
2023-01-26T16:56:15.513Z,98341.34
2023-01-26T16:58:42.150Z,98332.53
2023-01-26T17:01:17.521Z,98322.88
2023-01-26T17:03:44.805Z,98322.16
2023-01-26T17:06:12.466Z,98348.50
2023-01-26T17:08:40.000Z,98279.72
2023-01-26T17:11:06.587Z,98276.34
2023-01-26T17:13:33.357Z,98346.13
2023-01-26T17:15:59.872Z,98257.53
2023-01-26T17:18:26.560Z,98319.16
2023-01-26T17:20:53.145Z,98342.13
2023-01-26T17:23:20.346Z,98297.97
2023-01-26T17:25:46.978Z,98319.94
2023-01-26T17:28:13.619Z,98356.41
2023-01-26T17:30:40.208Z,98268.41
2023-01-26T17:33:07.888Z,98358.41
2023-01-26T17:35:35.924Z,98333.25
2023-01-26T17:38:02.485Z,98315.25
2023-01-26T17:40:29.143Z,98311.88
2023-01-26T17:42:55.680Z,98284.84
2023-01-26T17:45:23.199Z,98355.34
2023-01-26T17:47:49.734Z,98334.00
2023-01-26T17:50:16.466Z,98362.97
2023-01-26T17:52:42.991Z,98325.59
2023-01-26T17:55:09.916Z,98365.63
2023-01-26T17:57:36.767Z,98377.03
2023-01-26T18:00:06.120Z,98333.31
2023-01-26T18:02:37.209Z,98343.41
2023-01-26T18:05:05.012Z,98322.75
2023-01-26T18:07:31.627Z,98317.69
2023-01-26T18:09:58.236Z,98300.13
2023-01-26T18:12:24.820Z,98311.31
2023-01-26T18:14:54.234Z,98325.50
2023-01-26T18:17:21.574Z,98361.16
2023-01-26T18:19:48.183Z,98363.19
2023-01-26T18:22:14.729Z,98322.41
2023-01-26T18:24:41.309Z,98364.66
2023-01-26T18:27:08.120Z,98344.81
2023-01-26T18:29:34.723Z,98377.50
2023-01-26T18:32:01.385Z,98297.38
2023-01-26T18:34:28.102Z,98359.97
2023-01-26T18:36:54.753Z,98287.72
2023-01-26T18:39:21.389Z,98385.94
2023-01-26T18:41:47.914Z,98380.47
2023-01-26T18:44:14.481Z,98386.66
2023-01-26T18:46:41.032Z,98382.97
2023-01-26T18:49:07.589Z,98358.94
2023-01-26T18:51:36.133Z,98394.09
2023-01-26T18:54:04.243Z,98393.31
2023-01-26T18:56:31.347Z,98382.44
2023-01-26T18:58:58.567Z,98371.28
2023-01-26T19:01:26.190Z,98381.66
2023-01-26T19:03:57.623Z,98363.47
2023-01-26T19:06:26.204Z,98386.31
2023-01-26T19:09:01.215Z,98394.81
2023-01-26T19:11:30.778Z,98391.88
2023-01-26T19:13:58.229Z,98322.75
2023-01-26T19:16:25.670Z,98403.69
2023-01-26T19:18:54.059Z,98349.69
2023-01-26T19:21:24.233Z,98399.25
2023-01-26T19:23:53.120Z,98351.78
2023-01-26T19:26:23.282Z,98401.91
2023-01-26T19:28:50.977Z,98377.16
2023-01-26T19:31:21.632Z,98402.72
2023-01-26T19:33:52.886Z,98351.19
2023-01-26T19:36:19.927Z,98300.81
2023-01-26T19:38:46.644Z,98395.19
2023-01-26T19:41:13.867Z,98392.44
2023-01-26T19:43:40.469Z,98399.13
2023-01-26T19:46:09.308Z,98410.88
2023-01-26T19:48:35.995Z,98413.38
2023-01-26T19:51:10.189Z,98409.19
2023-01-26T19:53:43.152Z,98398.47
2023-01-26T19:56:20.200Z,98410.47
2023-01-26T19:58:51.843Z,98416.16
2023-01-26T20:01:19.057Z,98416.31
2023-01-26T20:03:50.591Z,98374.41
2023-01-26T20:06:20.580Z,98388.59
2023-01-26T20:08:48.144Z,98379.53
2023-01-26T20:11:15.147Z,98416.19
2023-01-26T20:13:41.868Z,98380.50
2023-01-26T20:16:09.851Z,98408.13
2023-01-26T20:18:37.088Z,98416.88
2023-01-26T20:21:06.462Z,98410.31
2023-01-26T20:23:33.910Z,98410.91
2023-01-26T20:26:02.664Z,98409.94
2023-01-26T20:28:29.797Z,98368.69
2023-01-26T20:31:04.402Z,98414.94
2023-01-26T20:33:31.235Z,98379.13
2023-01-26T20:35:58.001Z,98421.19
2023-01-26T20:38:24.565Z,98427.31
2023-01-26T20:40:51.075Z,98393.84
2023-01-26T20:43:17.643Z,98356.34
2023-01-26T20:45:44.416Z,98420.72
2023-01-26T20:48:11.331Z,98406.66
2023-01-26T20:50:40.633Z,98418.34
2023-01-26T20:53:08.331Z,98419.44
2023-01-26T20:55:35.471Z,98398.78
2023-01-26T20:58:02.085Z,98397.84
2023-01-26T21:00:28.730Z,98414.69
2023-01-26T21:02:55.591Z,98336.19
2023-01-26T21:05:22.224Z,98405.84
2023-01-26T21:07:48.708Z,98377.41
2023-01-26T21:10:16.035Z,98363.16
2023-01-26T21:12:42.750Z,98338.38
2023-01-26T21:15:09.875Z,98398.47
2023-01-26T21:17:36.469Z,98405.03
2023-01-26T21:20:03.318Z,98373.38
2023-01-26T21:22:29.924Z,98353.63
2023-01-26T21:24:56.542Z,98396.53
2023-01-26T21:27:23.091Z,98379.25
2023-01-26T21:29:50.093Z,98377.56
2023-01-26T21:32:16.686Z,98382.91
2023-01-26T21:34:43.235Z,98403.53
2023-01-26T21:37:09.829Z,98332.75
2023-01-26T21:39:36.371Z,98379.31
2023-01-26T21:42:03.059Z,98398.78
2023-01-26T21:44:31.769Z,98395.97
2023-01-26T21:47:00.668Z,98326.94
2023-01-26T21:49:28.512Z,98378.09
2023-01-26T21:52:14.339Z,98392.63
2023-01-26T21:54:41.256Z,98386.19
2023-01-26T21:57:29.003Z,98401.13
2023-01-26T21:59:56.076Z,98336.88
2023-01-26T22:02:23.636Z,98388.69
2023-01-26T22:04:51.594Z,98352.13
2023-01-26T22:07:18.533Z,98395.38
2023-01-26T22:09:45.123Z,98316.03
2023-01-26T22:12:11.785Z,98404.84
2023-01-26T22:14:38.403Z,98403.03
2023-01-26T22:17:05.041Z,98330.97
2023-01-26T22:19:31.557Z,98386.44
2023-01-26T22:21:58.161Z,98412.44
2023-01-26T22:24:24.779Z,98389.22
2023-01-26T22:26:51.352Z,98416.84
2023-01-26T22:29:17.912Z,98374.44
2023-01-26T22:31:44.468Z,98410.41
2023-01-26T22:34:13.999Z,98411.13
2023-01-26T22:36:41.321Z,98283.06
2023-01-26T22:39:08.791Z,98414.00
2023-01-26T22:41:37.504Z,98337.00
2023-01-26T22:44:04.234Z,98399.31
2023-01-26T22:46:31.578Z,98360.63
2023-01-26T22:48:59.068Z,98367.69
2023-01-26T22:51:28.530Z,98405.03
2023-01-26T22:53:56.704Z,98360.91
2023-01-26T22:56:24.033Z,98414.19
2023-01-26T22:58:58.135Z,98409.53
2023-01-26T23:01:31.214Z,98392.28
2023-01-26T23:03:58.455Z,98374.78
2023-01-26T23:06:25.774Z,98403.69
2023-01-26T23:08:52.947Z,98366.59
2023-01-26T23:11:22.800Z,98392.66
2023-01-26T23:13:51.723Z,98328.81
2023-01-26T23:16:18.791Z,98394.28
2023-01-26T23:18:45.367Z,98347.00
2023-01-26T23:21:12.442Z,98344.16
2023-01-26T23:23:40.567Z,98291.31
2023-01-26T23:26:07.899Z,98357.34
2023-01-26T23:28:40.802Z,98402.22
2023-01-26T23:31:08.345Z,98399.63
2023-01-26T23:33:36.471Z,98377.53
2023-01-26T23:36:04.515Z,98391.66
2023-01-26T23:38:31.915Z,98380.00
2023-01-26T23:41:00.372Z,98374.78
2023-01-26T23:43:27.196Z,98368.78
2023-01-26T23:45:56.307Z,98354.09
2023-01-26T23:48:24.320Z,98376.66
2023-01-26T23:50:58.337Z,98341.56
2023-01-26T23:53:25.000Z,98310.66
2023-01-26T23:55:52.442Z,98390.13
2023-01-26T23:58:19.830Z,98368.19
